NCAR-RAP Real-Time Weather Data

Output produced by METARs form (12 May 2021  11:10 UTC)
found at http://weather.rap.ucar.edu/surface/
 
KHON 121055Z AUTO 10SM CLR 02/M02 A3035 RMK AO2 SLP284 T00171022
KHON 120955Z AUTO 15003KT 10SM CLR 02/M02 A3034 RMK AO2 SLP282 T00221017
KHON 120855Z AUTO 16003KT 10SM CLR 03/M02 A3034 RMK AO2 SLP280 T00331022 58003
KHON 120755Z AUTO 17005KT 10SM CLR 05/M02 A3034 RMK AO2 SLP280 T00501022
KHON 120655Z AUTO 15005KT 10SM CLR 05/M02 A3034 RMK AO2 SLP281 T00501022
KHON 120555Z AUTO 14008KT 10SM CLR 04/M01 A3035 RMK AO2 SLP282 T00441006 10161 20044 401721028 51003
KHON 120455Z AUTO 00000KT 10SM CLR 06/01 A3034 RMK AO2 SLP280 T00610011
KHON 120355Z AUTO 00000KT 10SM CLR 07/M03 A3035 RMK AO2 SLP282 T00721028
KHON 120255Z AUTO 21003KT 10SM CLR 11/M04 A3034 RMK AO2 SLP277 T01111039 53011
KHON 120155Z AUTO 00000KT 10SM CLR 13/M05 A3032 RMK AO2 SLP272 T01331050
KHON 120055Z AUTO 19003KT 10SM CLR 15/M05 A3031 RMK AO2 SLP268 T01501050
KHON 112355Z AUTO 21005KT 10SM CLR 16/M04 A3030 RMK AO2 SLP269 T01561044 10172 20139 55001
KHON 112255Z AUTO VRB03KT 10SM CLR 17/M04 A3030 RMK AO2 SLP268 T01671044
KHON 112155Z AUTO 00000KT 10SM CLR 16/M04 A3030 RMK AO2 SLP266 T01611039
KHON 112055Z AUTO 16004KT 10SM CLR 16/M04 A3030 RMK AO2 SLP268 T01561044 56014